Terminal Aerodrome Forecast
Issued by NWS

Home | Current Version | Previous Version | Text Only | Print | Product List | Glossary On
Versions: 1 2 3 4 5 6 7 8 9 10 11 12 13 14 15 16 17 18 19 20 21 22 23 24 25 26 27 28 29 30 31 32 33 34 35 36 37 38 39 40 41 42 43 44
000
FTUS45 KLKN 260124 AAB
TAFWMC
TAF AMD
KWMC 260124Z 2601/2624 36007KT P6SM VCSH SCT030 OVC060
      TEMPO 2601/2603 2SM SHRA BR BKN020
     FM260500 31010KT P6SM BKN050
     FM261000 31005KT P6SM VCFG SKC
     FM261800 31012G22KT P6SM FEW250=

USA.gov is the U.S. government's official web portal to all federal, state and local government web resources and services.